Time;durP1;ratioP1;P1;durP2;ratioP2;P2;SDS_P1;SDS_P2;PMS_P1;PMS_P2;Temp;Humidity;BMP_temperature;BMP_pressure;BME280_temperature;BME280_humidity;BME280_pressure;Samples;Min_cycle;Max_cycle;Signal;HPM_P1;HPM_P2
2023/10/14 00:00:33;;;;;;;;;;;14.60;99.90;;;;;;5060240;28;19936;-32
2023/10/14 00:03:17;;;;;;;;;;;14.60;99.90;;;;;;5064849;28;19942;-33
2023/10/14 00:05:43;;;;;;;;;;;14.60;99.90;;;;;;5061397;28;19939;-33
2023/10/14 00:08:12;;;;;;;;;;;14.50;99.90;;;;;;5064616;28;19958;-34
2023/10/14 00:10:40;;;;;;;;;;;14.40;99.90;;;;;;5051424;28;20392;-32
2023/10/14 00:13:10;;;;;;;;;;;14.40;99.90;;;;;;5054156;28;19946;-33
2023/10/14 00:15:39;;;;;;;;;;;14.30;99.90;;;;;;5057065;28;20498;-33
2023/10/14 00:18:06;;;;;;;;;;;14.30;99.90;;;;;;5060833;28;19985;-33
2023/10/14 00:20:35;;;;;;;;;;;14.20;99.90;;;;;;5065414;28;20037;-32
2023/10/14 00:23:02;;;;;;;;;;;14.10;99.90;;;;;;5064452;28;19967;-33
2023/10/14 00:25:28;;;;;;;;;;;14.00;99.90;;;;;;5065283;28;20372;-32
2023/10/14 00:27:56;;;;;;;;;;;14.00;99.90;;;;;;5062486;28;20039;-34
2023/10/14 00:30:26;;;;;;;;;;;13.90;99.90;;;;;;5066068;28;19951;-34
2023/10/14 00:32:53;;;;;;;;;;;13.90;99.90;;;;;;5063235;28;20287;-32
2023/10/14 00:35:20;;;;;;;;;;;13.80;99.90;;;;;;5066921;28;20486;-33
2023/10/14 00:37:47;;;;;;;;;;;13.80;99.90;;;;;;5064936;28;19939;-33
2023/10/14 00:40:22;;;;;;;;;;;13.80;99.90;;;;;;5068699;28;19943;-32
2023/10/14 00:42:50;;;;;;;;;;;13.70;99.90;;;;;;5067048;28;19946;-32
2023/10/14 00:45:20;;;;;;;;;;;13.60;99.90;;;;;;5063076;28;20385;-31
2023/10/14 00:47:48;;;;;;;;;;;13.60;99.90;;;;;;5065991;28;20524;-32
2023/10/14 00:50:28;;;;;;;;;;;13.60;99.90;;;;;;5064960;28;19993;-33
2023/10/14 00:52:57;;;;;;;;;;;13.50;99.90;;;;;;5067744;28;19952;-33
2023/10/14 00:55:27;;;;;;;;;;;13.50;99.90;;;;;;5062770;28;19952;-32
2023/10/14 00:57:55;;;;;;;;;;;13.50;99.90;;;;;;5069974;28;19943;-32
2023/10/14 01:00:33;;;;;;;;;;;13.50;99.90;;;;;;5083808;28;20698;-33
2023/10/14 01:03:01;;;;;;;;;;;13.40;99.90;;;;;;5066911;28;19949;-33
2023/10/14 01:05:29;;;;;;;;;;;13.40;99.90;;;;;;5089538;28;20290;-31
2023/10/14 01:07:58;;;;;;;;;;;13.40;99.90;;;;;;5063900;28;19970;-33
2023/10/14 01:10:25;;;;;;;;;;;13.30;99.90;;;;;;5064245;28;20522;-34
2023/10/14 01:12:55;;;;;;;;;;;13.30;99.90;;;;;;5068849;28;20010;-33
2023/10/14 01:15:28;;;;;;;;;;;13.30;99.90;;;;;;5061293;28;20404;-33
2023/10/14 01:17:55;;;;;;;;;;;13.30;99.90;;;;;;5062617;28;19946;-33
2023/10/14 01:20:37;;;;;;;;;;;13.20;99.90;;;;;;5056366;28;19938;-33
2023/10/14 01:23:24;;;;;;;;;;;13.20;99.90;;;;;;5057582;28;19964;-33
2023/10/14 01:25:52;;;;;;;;;;;13.20;99.90;;;;;;5062330;28;19948;-35
2023/10/14 01:28:21;;;;;;;;;;;13.20;99.90;;;;;;5057589;28;20354;-32
2023/10/14 01:31:11;;;;;;;;;;;13.10;99.90;;;;;;5065416;28;19967;-32
2023/10/14 01:33:38;;;;;;;;;;;13.10;99.90;;;;;;5063030;28;20030;-31
2023/10/14 01:36:05;;;;;;;;;;;13.00;99.90;;;;;;5060975;28;20034;-33
2023/10/14 01:38:38;;;;;;;;;;;13.00;99.90;;;;;;5067096;28;19940;-33
2023/10/14 01:41:05;;;;;;;;;;;13.00;99.90;;;;;;5063545;28;19945;-32
2023/10/14 01:43:33;;;;;;;;;;;13.00;99.90;;;;;;5061683;28;20060;-31
2023/10/14 01:46:08;;;;;;;;;;;12.90;99.90;;;;;;5064380;28;19942;-32
2023/10/14 01:48:38;;;;;;;;;;;12.90;99.90;;;;;;5061159;28;19958;-32
2023/10/14 01:51:04;;;;;;;;;;;12.80;99.90;;;;;;5062449;28;19944;-32
2023/10/14 01:53:34;;;;;;;;;;;12.80;99.90;;;;;;5061557;28;19948;-31
2023/10/14 01:56:02;;;;;;;;;;;12.80;99.90;;;;;;5095460;28;20001;-31
2023/10/14 01:58:33;;;;;;;;;;;12.70;99.90;;;;;;5065117;28;20061;-32
2023/10/14 02:01:04;;;;;;;;;;;12.70;99.90;;;;;;5067118;28;20324;-34
2023/10/14 02:03:33;;;;;;;;;;;12.70;99.90;;;;;;5063651;28;19944;-34
2023/10/14 02:06:02;;;;;;;;;;;12.70;99.90;;;;;;5066004;28;20412;-32
2023/10/14 02:08:29;;;;;;;;;;;12.60;99.90;;;;;;5066120;28;20001;-31
2023/10/14 02:10:56;;;;;;;;;;;12.60;99.90;;;;;;5063145;28;19948;-31
2023/10/14 02:13:24;;;;;;;;;;;12.50;99.90;;;;;;5062907;28;20375;-31
2023/10/14 02:15:52;;;;;;;;;;;12.50;99.90;;;;;;5067137;28;19942;-32
2023/10/14 02:18:21;;;;;;;;;;;12.40;99.90;;;;;;5065984;28;20390;-32
2023/10/14 02:20:57;;;;;;;;;;;12.40;99.90;;;;;;5060129;28;20299;-32
2023/10/14 02:23:27;;;;;;;;;;;12.40;99.90;;;;;;5058431;28;20056;-31
2023/10/14 02:25:57;;;;;;;;;;;12.30;99.90;;;;;;5053241;28;19988;-32
2023/10/14 02:28:27;;;;;;;;;;;12.30;99.90;;;;;;5052904;28;19955;-31
2023/10/14 02:30:59;;;;;;;;;;;12.30;99.90;;;;;;5057867;28;19941;-33
2023/10/14 02:33:26;;;;;;;;;;;12.20;99.90;;;;;;5060050;28;19953;-32
2023/10/14 02:35:59;;;;;;;;;;;12.10;99.90;;;;;;5051338;28;19943;-32
2023/10/14 02:38:26;;;;;;;;;;;12.10;99.90;;;;;;5056920;28;19942;-32
2023/10/14 02:40:52;;;;;;;;;;;12.00;99.90;;;;;;5058621;28;20090;-32
2023/10/14 02:43:19;;;;;;;;;;;12.00;99.90;;;;;;5062023;28;19951;-32
2023/10/14 02:45:48;;;;;;;;;;;11.90;99.90;;;;;;5095032;28;19988;-32
2023/10/14 02:48:19;;;;;;;;;;;11.90;99.90;;;;;;5067062;28;19959;-33
2023/10/14 02:50:50;;;;;;;;;;;11.80;99.90;;;;;;5062830;28;19948;-32
2023/10/14 02:53:22;;;;;;;;;;;11.80;99.90;;;;;;5062871;28;19995;-33
2023/10/14 02:55:52;;;;;;;;;;;11.70;99.90;;;;;;5062815;28;19945;-31
2023/10/14 02:58:20;;;;;;;;;;;11.60;99.90;;;;;;5058950;28;20385;-33
2023/10/14 03:00:50;;;;;;;;;;;11.60;99.90;;;;;;5062456;28;19937;-32
2023/10/14 03:03:21;;;;;;;;;;;11.60;99.90;;;;;;5061824;28;20035;-32
2023/10/14 03:05:52;;;;;;;;;;;11.60;99.90;;;;;;5062434;28;20276;-32
2023/10/14 03:08:18;;;;;;;;;;;11.50;99.90;;;;;;5062934;28;19960;-33
2023/10/14 03:10:46;;;;;;;;;;;11.50;99.90;;;;;;5062889;28;19977;-33
2023/10/14 03:13:13;;;;;;;;;;;11.50;99.90;;;;;;5062354;28;19941;-32
2023/10/14 03:15:40;;;;;;;;;;;11.40;99.90;;;;;;5061188;28;19981;-32
2023/10/14 03:18:08;;;;;;;;;;;11.40;99.90;;;;;;5066297;28;19953;-32
2023/10/14 03:20:36;;;;;;;;;;;11.40;99.90;;;;;;5060080;28;19947;-34
2023/10/14 03:23:08;;;;;;;;;;;11.30;99.90;;;;;;5060871;28;19963;-32
2023/10/14 03:25:35;;;;;;;;;;;11.30;99.90;;;;;;5064037;28;19970;-33
2023/10/14 03:28:08;;;;;;;;;;;11.30;99.90;;;;;;5058527;28;19958;-32
2023/10/14 03:30:37;;;;;;;;;;;11.30;99.90;;;;;;5059781;28;20410;-32
2023/10/14 03:33:09;;;;;;;;;;;11.20;99.90;;;;;;5057333;28;19990;-33
2023/10/14 03:35:38;;;;;;;;;;;11.20;99.90;;;;;;5063239;28;20388;-33
2023/10/14 03:38:11;;;;;;;;;;;11.20;99.90;;;;;;5060471;28;20009;-33
2023/10/14 03:40:51;;;;;;;;;;;11.10;99.90;;;;;;5055271;28;19946;-32
2023/10/14 03:43:19;;;;;;;;;;;11.10;99.90;;;;;;5048113;28;20415;-32
2023/10/14 03:45:48;;;;;;;;;;;11.00;99.90;;;;;;5059506;28;19948;-32
2023/10/14 03:48:15;;;;;;;;;;;11.00;99.90;;;;;;5055874;28;19949;-31
2023/10/14 03:50:46;;;;;;;;;;;11.00;99.90;;;;;;5057409;28;19992;-32
2023/10/14 03:53:13;;;;;;;;;;;11.00;99.90;;;;;;5057509;28;19940;-31
2023/10/14 03:55:41;;;;;;;;;;;11.00;99.90;;;;;;5056577;28;19939;-31
2023/10/14 03:58:09;;;;;;;;;;;11.00;99.90;;;;;;5060679;28;19941;-31
2023/10/14 04:00:38;;;;;;;;;;;10.90;99.90;;;;;;5060486;28;20306;-32
2023/10/14 04:03:11;;;;;;;;;;;11.00;99.90;;;;;;5058814;28;20298;-32
2023/10/14 04:05:38;;;;;;;;;;;10.90;99.90;;;;;;5061107;28;19946;-32
2023/10/14 04:08:08;;;;;;;;;;;10.90;99.90;;;;;;5063992;28;19938;-33
2023/10/14 04:10:43;;;;;;;;;;;10.90;99.90;;;;;;5062036;28;20428;-32
2023/10/14 04:13:13;;;;;;;;;;;10.90;99.90;;;;;;5058750;28;20032;-32
2023/10/14 04:15:47;;;;;;;;;;;10.90;99.90;;;;;;5070269;28;20040;-32
2023/10/14 04:18:15;;;;;;;;;;;10.90;99.90;;;;;;5059471;28;19944;-32
2023/10/14 04:20:46;;;;;;;;;;;10.90;99.90;;;;;;5062116;28;19945;-31
2023/10/14 04:23:29;;;;;;;;;;;10.90;99.90;;;;;;5096788;28;20071;-31
2023/10/14 04:26:03;;;;;;;;;;;10.90;99.90;;;;;;5064294;28;19987;-32
2023/10/14 04:28:31;;;;;;;;;;;10.90;99.90;;;;;;5068231;28;19953;-31
2023/10/14 04:31:01;;;;;;;;;;;10.90;99.90;;;;;;5064021;28;19946;-32
2023/10/14 04:33:34;;;;;;;;;;;10.90;99.90;;;;;;5062850;28;19953;-33
2023/10/14 04:36:22;;;;;;;;;;;10.90;99.90;;;;;;5065463;28;20648;-31
2023/10/14 04:39:04;;;;;;;;;;;10.90;99.90;;;;;;5060012;28;19941;-32
2023/10/14 04:41:31;;;;;;;;;;;10.90;99.90;;;;;;5066037;28;19938;-33
2023/10/14 04:44:02;;;;;;;;;;;10.90;99.90;;;;;;5065829;28;19976;-31
2023/10/14 04:46:45;;;;;;;;;;;10.90;99.90;;;;;;5062301;28;19938;-31
2023/10/14 04:49:15;;;;;;;;;;;10.80;99.90;;;;;;5060708;28;19950;-33
2023/10/14 04:51:46;;;;;;;;;;;10.80;99.90;;;;;;5059119;28;20439;-32
2023/10/14 04:54:19;;;;;;;;;;;10.80;99.90;;;;;;5054575;28;19936;-31
2023/10/14 04:56:46;;;;;;;;;;;10.80;99.90;;;;;;5061764;28;19937;-32
2023/10/14 04:59:13;;;;;;;;;;;10.80;99.90;;;;;;5058753;28;20322;-34
2023/10/14 05:01:42;;;;;;;;;;;10.70;99.90;;;;;;5054629;28;19944;-32
2023/10/14 05:04:09;;;;;;;;;;;10.70;99.90;;;;;;5069736;28;19941;-31
2023/10/14 05:06:40;;;;;;;;;;;10.70;99.90;;;;;;5062199;28;19946;-33
2023/10/14 05:09:09;;;;;;;;;;;10.70;99.90;;;;;;5060347;28;19968;-33
2023/10/14 05:11:37;;;;;;;;;;;10.60;99.90;;;;;;5058770;28;19939;-34
2023/10/14 05:14:14;;;;;;;;;;;10.70;99.90;;;;;;5068288;28;19940;-33
2023/10/14 05:16:53;;;;;;;;;;;10.60;99.90;;;;;;5064295;28;20341;-33
2023/10/14 05:19:24;;;;;;;;;;;10.60;99.90;;;;;;5062189;28;19950;-32
2023/10/14 05:21:57;;;;;;;;;;;10.70;99.90;;;;;;5064810;28;19941;-32
2023/10/14 05:24:28;;;;;;;;;;;10.60;99.90;;;;;;5061448;28;19994;-32
2023/10/14 05:27:02;;;;;;;;;;;10.60;99.90;;;;;;5063228;28;20382;-32
2023/10/14 05:29:29;;;;;;;;;;;10.60;99.90;;;;;;5059786;28;19958;-34
2023/10/14 05:32:04;;;;;;;;;;;10.60;99.90;;;;;;5066141;28;19994;-32
2023/10/14 05:34:32;;;;;;;;;;;10.50;99.90;;;;;;5057177;28;20411;-31
2023/10/14 05:36:59;;;;;;;;;;;10.50;99.90;;;;;;5062576;28;20028;-32
2023/10/14 05:39:27;;;;;;;;;;;10.50;99.90;;;;;;5064868;28;20384;-33
2023/10/14 05:41:58;;;;;;;;;;;10.40;99.90;;;;;;5064506;28;19982;-31
2023/10/14 05:44:27;;;;;;;;;;;10.40;99.90;;;;;;5064515;28;21014;-32
2023/10/14 05:46:54;;;;;;;;;;;10.40;99.90;;;;;;5057258;28;19940;-32
2023/10/14 05:49:24;;;;;;;;;;;10.30;99.90;;;;;;5094868;28;20010;-32
2023/10/14 05:51:51;;;;;;;;;;;10.30;99.90;;;;;;5059028;28;20038;-32
2023/10/14 05:54:17;;;;;;;;;;;10.30;99.90;;;;;;5061541;28;20034;-32
2023/10/14 05:56:44;;;;;;;;;;;10.30;99.90;;;;;;5058319;28;20028;-31
2023/10/14 05:59:11;;;;;;;;;;;10.30;99.90;;;;;;5063115;28;19994;-32
2023/10/14 06:01:45;;;;;;;;;;;10.20;99.90;;;;;;5063087;28;20416;-31
2023/10/14 06:04:13;;;;;;;;;;;10.20;99.90;;;;;;5058237;28;20015;-34
2023/10/14 06:06:40;;;;;;;;;;;10.20;99.90;;;;;;5063400;28;19943;-31
2023/10/14 06:09:07;;;;;;;;;;;10.20;99.90;;;;;;5061371;28;19955;-32
2023/10/14 06:11:34;;;;;;;;;;;10.10;99.90;;;;;;5062173;28;19976;-31
2023/10/14 06:14:02;;;;;;;;;;;10.10;99.90;;;;;;5057762;28;20029;-33
2023/10/14 06:16:29;;;;;;;;;;;10.10;99.90;;;;;;5057107;28;20028;-31
2023/10/14 06:18:57;;;;;;;;;;;10.10;99.90;;;;;;5060906;28;20008;-32
2023/10/14 06:21:27;;;;;;;;;;;10.10;99.90;;;;;;5060947;28;20589;-32
2023/10/14 06:23:53;;;;;;;;;;;10.10;99.90;;;;;;5061121;28;19958;-31
2023/10/14 06:26:20;;;;;;;;;;;10.00;99.90;;;;;;5062339;28;19939;-32
2023/10/14 06:28:48;;;;;;;;;;;10.00;99.90;;;;;;5064296;28;19940;-32
2023/10/14 06:31:14;;;;;;;;;;;10.00;99.90;;;;;;5059506;28;19948;-32
2023/10/14 06:33:41;;;;;;;;;;;10.00;99.90;;;;;;5094179;28;19990;-32
2023/10/14 06:36:14;;;;;;;;;;;10.00;99.90;;;;;;5064603;28;19950;-32
2023/10/14 06:38:44;;;;;;;;;;;10.00;99.90;;;;;;5058793;28;19938;-32
2023/10/14 06:41:11;;;;;;;;;;;10.00;99.90;;;;;;5062720;28;19940;-34
2023/10/14 06:43:38;;;;;;;;;;;10.00;99.90;;;;;;5054472;28;20024;-31
2023/10/14 06:46:05;;;;;;;;;;;10.00;99.90;;;;;;5059607;28;19940;-33
2023/10/14 06:48:32;;;;;;;;;;;10.00;99.90;;;;;;5063876;28;20335;-31
2023/10/14 06:50:59;;;;;;;;;;;10.00;99.90;;;;;;5057532;28;20010;-31
2023/10/14 06:53:28;;;;;;;;;;;9.90;99.90;;;;;;5064195;28;20016;-34
2023/10/14 06:55:55;;;;;;;;;;;9.90;99.90;;;;;;5063197;28;19940;-31
2023/10/14 06:58:21;;;;;;;;;;;9.90;99.90;;;;;;5058522;28;19996;-31
2023/10/14 07:00:48;;;;;;;;;;;9.90;99.90;;;;;;5058494;28;19952;-32
2023/10/14 07:03:15;;;;;;;;;;;10.00;99.90;;;;;;5064679;28;19940;-32
2023/10/14 07:05:46;;;;;;;;;;;10.00;99.90;;;;;;5056818;28;20165;-32
2023/10/14 07:08:13;;;;;;;;;;;10.00;99.90;;;;;;5055577;28;19943;-32
2023/10/14 07:10:41;;;;;;;;;;;10.00;99.90;;;;;;5056113;28;20381;-32
2023/10/14 07:13:08;;;;;;;;;;;10.00;99.90;;;;;;5052665;28;19949;-33
2023/10/14 07:15:36;;;;;;;;;;;10.00;99.90;;;;;;5060677;28;19942;-34
2023/10/14 07:18:02;;;;;;;;;;;10.10;99.90;;;;;;5053377;28;20466;-32
2023/10/14 07:20:29;;;;;;;;;;;10.10;99.90;;;;;;5053163;28;20048;-34
2023/10/14 07:22:56;;;;;;;;;;;10.10;99.90;;;;;;5064676;28;19940;-32
2023/10/14 07:25:24;;;;;;;;;;;10.20;99.90;;;;;;5061159;28;20383;-34
2023/10/14 07:27:52;;;;;;;;;;;10.20;99.90;;;;;;5065707;28;20282;-33
2023/10/14 07:30:19;;;;;;;;;;;10.30;99.90;;;;;;5062883;28;20441;-33
2023/10/14 07:32:46;;;;;;;;;;;10.30;99.90;;;;;;5057497;28;19948;-32
2023/10/14 07:35:13;;;;;;;;;;;10.40;99.90;;;;;;5053908;28;20459;-33
2023/10/14 07:37:42;;;;;;;;;;;10.50;99.90;;;;;;5057494;28;20304;-32
2023/10/14 07:40:11;;;;;;;;;;;10.60;99.90;;;;;;5060304;28;20038;-32
2023/10/14 07:42:38;;;;;;;;;;;10.70;99.90;;;;;;5095301;28;20024;-33
2023/10/14 07:45:10;;;;;;;;;;;10.80;99.90;;;;;;5062277;28;20411;-33
2023/10/14 07:47:37;;;;;;;;;;;10.90;99.90;;;;;;5064361;28;20091;-34
2023/10/14 07:50:09;;;;;;;;;;;11.10;99.90;;;;;;5067764;28;19992;-33
2023/10/14 07:52:36;;;;;;;;;;;11.20;99.90;;;;;;5061225;28;19946;-34
2023/10/14 07:55:03;;;;;;;;;;;11.30;99.90;;;;;;5062413;28;20796;-33
2023/10/14 07:57:30;;;;;;;;;;;11.50;99.90;;;;;;5062919;28;20008;-32
2023/10/14 08:00:00;;;;;;;;;;;11.50;99.90;;;;;;5062609;28;19942;-33
2023/10/14 08:02:29;;;;;;;;;;;11.70;99.90;;;;;;5068231;28;19940;-33
2023/10/14 08:04:55;;;;;;;;;;;11.80;99.90;;;;;;5060016;28;19943;-34
2023/10/14 08:07:22;;;;;;;;;;;11.90;99.90;;;;;;5069304;28;20430;-34
2023/10/14 08:09:49;;;;;;;;;;;12.00;99.90;;;;;;5064311;28;19951;-33
2023/10/14 08:12:15;;;;;;;;;;;12.10;99.90;;;;;;5067025;28;19944;-32
2023/10/14 08:14:44;;;;;;;;;;;12.20;99.90;;;;;;5066074;28;20101;-33
2023/10/14 08:17:12;;;;;;;;;;;12.30;99.90;;;;;;5065563;28;19944;-34
2023/10/14 08:19:40;;;;;;;;;;;12.40;99.90;;;;;;5066330;28;20285;-34
2023/10/14 08:22:08;;;;;;;;;;;12.50;99.90;;;;;;5063183;28;20634;-33
2023/10/14 08:24:34;;;;;;;;;;;12.50;99.90;;;;;;5062604;28;20049;-34
2023/10/14 08:27:01;;;;;;;;;;;12.60;99.90;;;;;;5062807;28;19987;-32
2023/10/14 08:29:32;;;;;;;;;;;12.70;99.90;;;;;;5065063;28;19944;-34
2023/10/14 08:31:59;;;;;;;;;;;12.80;99.90;;;;;;5065077;28;20036;-33
2023/10/14 08:34:25;;;;;;;;;;;12.90;99.90;;;;;;5059664;28;19937;-34
2023/10/14 08:36:56;;;;;;;;;;;13.00;99.90;;;;;;5061143;28;19985;-33
2023/10/14 08:39:23;;;;;;;;;;;13.00;99.90;;;;;;5091619;28;19945;-32
2023/10/14 08:44:25;;;;;;;;;;;13.20;99.90;;;;;;4798829;22;20426;-33
2023/10/14 08:46:52;;;;;;;;;;;13.20;99.90;;;;;;5110497;28;19992;-33
2023/10/14 08:49:23;;;;;;;;;;;13.30;99.90;;;;;;5088001;28;19951;-35
2023/10/14 08:51:50;;;;;;;;;;;13.40;99.90;;;;;;5076308;28;19988;-35
2023/10/14 08:54:19;;;;;;;;;;;13.40;99.90;;;;;;5089944;28;20391;-33
2023/10/14 08:56:45;;;;;;;;;;;13.30;99.90;;;;;;5109838;28;20314;-33
2023/10/14 08:59:12;;;;;;;;;;;13.30;99.90;;;;;;5087479;28;19942;-32
2023/10/14 09:01:40;;;;;;;;;;;13.40;99.90;;;;;;5104895;28;19937;-33
2023/10/14 09:04:09;;;;;;;;;;;13.50;99.90;;;;;;5090165;28;19941;-33
2023/10/14 09:06:36;;;;;;;;;;;13.50;99.90;;;;;;5088010;28;20421;-34
2023/10/14 09:09:02;;;;;;;;;;;13.50;99.90;;;;;;5091157;28;19995;-34
2023/10/14 09:11:33;;;;;;;;;;;13.50;99.90;;;;;;5085282;28;19980;-33
2023/10/14 09:14:03;;;;;;;;;;;13.60;99.90;;;;;;5101785;28;19944;-33
2023/10/14 09:16:32;;;;;;;;;;;13.60;99.90;;;;;;5084569;28;20048;-34
2023/10/14 09:18:59;;;;;;;;;;;13.70;99.90;;;;;;5086691;28;19945;-33
2023/10/14 09:21:26;;;;;;;;;;;13.80;99.90;;;;;;5087536;28;20014;-33
2023/10/14 09:23:52;;;;;;;;;;;13.90;99.90;;;;;;5085681;28;20079;-33
2023/10/14 09:26:19;;;;;;;;;;;13.90;99.90;;;;;;5081969;28;19987;-32
2023/10/14 09:28:48;;;;;;;;;;;14.00;99.90;;;;;;5106949;28;19937;-33
2023/10/14 09:31:14;;;;;;;;;;;14.00;99.90;;;;;;5107842;28;19946;-33
2023/10/14 09:33:42;;;;;;;;;;;14.00;99.90;;;;;;5108841;28;20003;-32
2023/10/14 09:36:14;;;;;;;;;;;13.90;99.90;;;;;;5105958;28;20284;-33
2023/10/14 09:38:41;;;;;;;;;;;13.90;99.90;;;;;;5109821;28;20477;-32
2023/10/14 09:41:10;;;;;;;;;;;13.90;99.90;;;;;;5085259;28;20377;-32
2023/10/14 09:43:39;;;;;;;;;;;13.90;99.90;;;;;;5089915;28;20025;-34
2023/10/14 09:46:08;;;;;;;;;;;13.90;99.90;;;;;;5087820;28;19947;-33
2023/10/14 09:48:35;;;;;;;;;;;14.00;99.90;;;;;;5085162;28;19942;-32
2023/10/14 09:51:03;;;;;;;;;;;14.10;99.90;;;;;;5102162;28;20483;-33
2023/10/14 09:53:32;;;;;;;;;;;14.20;99.90;;;;;;5080514;28;19982;-32
2023/10/14 09:56:04;;;;;;;;;;;14.20;99.90;;;;;;5099659;28;19951;-33
2023/10/14 09:58:31;;;;;;;;;;;14.20;99.90;;;;;;5099312;28;20034;-33
2023/10/14 10:00:59;;;;;;;;;;;14.20;99.90;;;;;;5098724;28;19956;-33
2023/10/14 10:03:27;;;;;;;;;;;14.10;99.90;;;;;;5096083;28;20037;-33
2023/10/14 10:05:58;;;;;;;;;;;14.00;99.90;;;;;;5080016;28;20813;-34
2023/10/14 10:08:31;;;;;;;;;;;14.10;99.90;;;;;;5104793;28;19980;-33
2023/10/14 10:10:58;;;;;;;;;;;14.10;99.90;;;;;;5085404;28;20269;-33
2023/10/14 10:13:28;;;;;;;;;;;14.20;99.90;;;;;;5109311;28;19982;-32
2023/10/14 10:15:54;;;;;;;;;;;14.20;99.90;;;;;;5101762;28;19963;-33
2023/10/14 10:18:22;;;;;;;;;;;14.30;99.90;;;;;;5087196;28;19938;-33
2023/10/14 10:20:51;;;;;;;;;;;14.40;99.90;;;;;;5105528;28;19939;-33
2023/10/14 10:23:17;;;;;;;;;;;14.50;99.90;;;;;;5104667;28;19947;-33
2023/10/14 10:25:49;;;;;;;;;;;14.60;99.90;;;;;;5085911;28;19944;-33
2023/10/14 10:28:35;;;;;;;;;;;14.70;99.90;;;;;;5105407;28;19956;-34
2023/10/14 10:31:04;;;;;;;;;;;14.70;99.90;;;;;;5105174;28;20020;-32
2023/10/14 10:33:45;;;;;;;;;;;14.80;99.90;;;;;;5084343;28;19986;-32
2023/10/14 10:36:13;;;;;;;;;;;14.90;99.90;;;;;;5084716;28;19983;-33
2023/10/14 10:38:43;;;;;;;;;;;15.00;99.90;;;;;;5084206;28;20029;-34
2023/10/14 10:41:19;;;;;;;;;;;15.10;99.90;;;;;;5085357;28;20074;-34
2023/10/14 10:43:46;;;;;;;;;;;15.20;99.90;;;;;;5080149;28;20859;-34
2023/10/14 10:46:28;;;;;;;;;;;15.30;99.90;;;;;;5081875;28;20014;-32
2023/10/14 10:48:55;;;;;;;;;;;15.40;99.90;;;;;;5084151;28;20459;-33
2023/10/14 10:51:23;;;;;;;;;;;15.40;99.90;;;;;;5083358;28;19954;-34
2023/10/14 10:53:53;;;;;;;;;;;15.30;99.90;;;;;;5087263;28;19944;-33
2023/10/14 10:56:23;;;;;;;;;;;14.90;99.90;;;;;;5086842;28;20026;-33
2023/10/14 10:58:50;;;;;;;;;;;14.50;99.90;;;;;;5105181;28;19938;-35
2023/10/14 11:01:17;;;;;;;;;;;14.20;99.90;;;;;;5087056;28;19942;-32
2023/10/14 11:03:45;;;;;;;;;;;14.00;99.90;;;;;;5102535;28;20418;-33
2023/10/14 11:06:13;;;;;;;;;;;13.80;99.90;;;;;;5086490;28;19937;-32
2023/10/14 11:08:41;;;;;;;;;;;13.70;99.90;;;;;;5103117;28;20421;-33
2023/10/14 11:11:08;;;;;;;;;;;13.70;99.90;;;;;;5103129;28;19961;-33
2023/10/14 11:13:36;;;;;;;;;;;13.80;99.90;;;;;;5081880;28;19966;-32
2023/10/14 11:16:11;;;;;;;;;;;13.80;99.90;;;;;;5080698;28;19943;-34
2023/10/14 11:18:45;;;;;;;;;;;13.90;99.90;;;;;;5101116;28;19973;-33
2023/10/14 11:21:12;;;;;;;;;;;14.00;99.90;;;;;;5082180;28;20024;-33
2023/10/14 11:23:39;;;;;;;;;;;14.10;99.90;;;;;;5086945;28;19939;-34
2023/10/14 11:26:11;;;;;;;;;;;14.20;99.90;;;;;;5083381;28;20339;-33
2023/10/14 11:28:38;;;;;;;;;;;14.30;99.90;;;;;;5088503;28;20026;-33
2023/10/14 11:31:07;;;;;;;;;;;14.40;99.90;;;;;;5104781;28;19964;-33
2023/10/14 11:33:34;;;;;;;;;;;14.60;99.90;;;;;;5086364;28;19946;-33
2023/10/14 11:36:02;;;;;;;;;;;14.70;99.90;;;;;;5107041;28;19945;-34
2023/10/14 11:38:30;;;;;;;;;;;14.90;99.90;;;;;;5086761;28;19945;-34
2023/10/14 11:40:58;;;;;;;;;;;15.10;99.90;;;;;;5086437;28;19944;-33
2023/10/14 11:43:26;;;;;;;;;;;15.20;99.90;;;;;;5102475;28;20390;-33
2023/10/14 11:46:18;;;;;;;;;;;15.20;99.90;;;;;;5102650;28;20516;-33
2023/10/14 11:48:45;;;;;;;;;;;15.20;99.90;;;;;;5083334;28;19947;-33
2023/10/14 11:51:12;;;;;;;;;;;15.30;99.90;;;;;;5102043;28;20046;-34
2023/10/14 11:53:43;;;;;;;;;;;15.40;99.90;;;;;;5087034;28;19988;-33
2023/10/14 11:56:13;;;;;;;;;;;15.30;99.90;;;;;;5082720;28;19943;-33
2023/10/14 11:58:41;;;;;;;;;;;15.30;99.90;;;;;;5105185;28;19944;-33
2023/10/14 12:01:09;;;;;;;;;;;15.40;99.90;;;;;;5087427;28;19943;-37
2023/10/14 12:03:35;;;;;;;;;;;15.40;99.90;;;;;;5105033;28;19985;-32
2023/10/14 12:06:03;;;;;;;;;;;15.40;99.90;;;;;;5086704;28;19942;-34
2023/10/14 12:08:30;;;;;;;;;;;15.20;99.90;;;;;;5101378;28;20381;-33
2023/10/14 12:10:57;;;;;;;;;;;15.00;99.90;;;;;;5085256;28;19959;-33
2023/10/14 12:13:24;;;;;;;;;;;14.80;99.90;;;;;;5099068;28;19945;-33
2023/10/14 12:15:52;;;;;;;;;;;14.60;99.90;;;;;;5104190;28;19943;-33
2023/10/14 12:18:20;;;;;;;;;;;14.40;99.90;;;;;;5085352;28;19981;-32
2023/10/14 12:20:48;;;;;;;;;;;14.20;99.90;;;;;;5085083;28;19985;-33
2023/10/14 12:23:14;;;;;;;;;;;14.00;99.90;;;;;;5101739;28;19940;-33
2023/10/14 12:25:41;;;;;;;;;;;13.90;99.90;;;;;;5085571;28;19941;-33
2023/10/14 12:28:08;;;;;;;;;;;13.80;99.90;;;;;;5089528;28;19992;-32
2023/10/14 12:30:41;;;;;;;;;;;13.80;99.90;;;;;;5106155;28;19950;-32
2023/10/14 12:33:18;;;;;;;;;;;13.90;99.90;;;;;;5088713;28;19941;-33
2023/10/14 12:35:45;;;;;;;;;;;14.00;99.90;;;;;;5088686;28;19940;-32
2023/10/14 12:38:15;;;;;;;;;;;14.10;99.90;;;;;;5087766;28;20314;-33
2023/10/14 12:40:43;;;;;;;;;;;14.10;99.90;;;;;;5089099;28;20408;-33
2023/10/14 12:43:12;;;;;;;;;;;13.90;99.90;;;;;;5086534;28;19941;-32
2023/10/14 12:45:39;;;;;;;;;;;13.80;99.90;;;;;;5087762;28;20082;-32
2023/10/14 12:48:10;;;;;;;;;;;13.60;99.90;;;;;;5080586;28;19996;-31
2023/10/14 12:50:40;;;;;;;;;;;13.40;99.90;;;;;;5091817;28;19946;-32
2023/10/14 12:53:08;;;;;;;;;;;13.40;99.90;;;;;;5108049;28;20316;-32
2023/10/14 12:55:35;;;;;;;;;;;13.50;99.90;;;;;;5085379;28;19943;-31
2023/10/14 12:58:02;;;;;;;;;;;13.70;99.90;;;;;;5090077;28;19945;-32
2023/10/14 13:00:30;;;;;;;;;;;13.90;99.90;;;;;;5086842;28;19938;-31
2023/10/14 13:02:56;;;;;;;;;;;14.00;99.90;;;;;;5110455;28;19989;-31
2023/10/14 13:05:25;;;;;;;;;;;13.90;99.90;;;;;;5108990;28;20351;-32
2023/10/14 13:07:53;;;;;;;;;;;14.00;99.90;;;;;;5087464;28;19941;-32
2023/10/14 13:10:23;;;;;;;;;;;14.00;99.90;;;;;;5109501;28;19994;-31
2023/10/14 13:12:50;;;;;;;;;;;14.10;99.90;;;;;;5105963;28;19997;-31
2023/10/14 13:15:25;;;;;;;;;;;14.20;99.90;;;;;;5090071;28;20026;-31
2023/10/14 13:17:56;;;;;;;;;;;14.30;99.90;;;;;;5104882;28;19940;-35
2023/10/14 13:20:26;;;;;;;;;;;14.40;99.90;;;;;;5088826;28;19936;-31
2023/10/14 13:22:55;;;;;;;;;;;14.50;99.90;;;;;;5106505;28;19945;-31
2023/10/14 13:25:22;;;;;;;;;;;14.60;99.90;;;;;;5088701;28;20402;-32
2023/10/14 13:27:51;;;;;;;;;;;14.70;99.90;;;;;;5108654;28;20367;-31
2023/10/14 13:30:22;;;;;;;;;;;14.70;99.90;;;;;;5088633;28;19946;-31
2023/10/14 13:32:53;;;;;;;;;;;14.70;99.90;;;;;;5091315;28;19940;-32
2023/10/14 13:35:19;;;;;;;;;;;14.90;99.90;;;;;;5080926;28;19953;-31
2023/10/14 13:37:47;;;;;;;;;;;14.80;99.90;;;;;;5089805;28;20034;-32
2023/10/14 13:40:21;;;;;;;;;;;14.70;99.90;;;;;;5085986;28;20056;-31
2023/10/14 13:42:48;;;;;;;;;;;14.70;99.90;;;;;;5087047;28;20027;-31
2023/10/14 13:45:16;;;;;;;;;;;14.70;99.90;;;;;;5106949;28;19968;-31
2023/10/14 13:47:43;;;;;;;;;;;14.60;99.90;;;;;;5089747;28;19936;-31
2023/10/14 13:50:10;;;;;;;;;;;14.50;99.90;;;;;;5093992;28;20388;-31
2023/10/14 13:52:38;;;;;;;;;;;14.40;99.90;;;;;;5089364;28;19960;-32
2023/10/14 13:55:06;;;;;;;;;;;14.40;99.90;;;;;;5090769;28;20033;-32
2023/10/14 13:57:34;;;;;;;;;;;14.30;99.90;;;;;;5088365;28;19984;-31
2023/10/14 14:00:07;;;;;;;;;;;14.40;99.90;;;;;;5110379;28;20603;-32
2023/10/14 14:02:34;;;;;;;;;;;14.30;99.90;;;;;;5089502;28;19946;-31
2023/10/14 14:05:04;;;;;;;;;;;14.30;99.90;;;;;;5080710;28;20017;-31
2023/10/14 14:07:31;;;;;;;;;;;14.30;99.90;;;;;;5098236;28;19949;-30
2023/10/14 14:09:58;;;;;;;;;;;14.20;99.90;;;;;;5083659;28;20384;-32
2023/10/14 14:12:24;;;;;;;;;;;14.00;99.90;;;;;;5085958;28;19997;-32
2023/10/14 14:14:52;;;;;;;;;;;13.80;99.90;;;;;;5084532;28;20695;-31
2023/10/14 14:17:23;;;;;;;;;;;13.60;99.90;;;;;;5087439;28;19943;-31
2023/10/14 14:19:50;;;;;;;;;;;13.50;99.90;;;;;;5082289;28;19950;-31
2023/10/14 14:22:18;;;;;;;;;;;13.40;99.90;;;;;;5085219;28;19941;-31
2023/10/14 14:24:45;;;;;;;;;;;13.30;99.90;;;;;;5101392;28;19954;-31
2023/10/14 14:27:12;;;;;;;;;;;13.20;99.90;;;;;;5084440;28;19948;-31
2023/10/14 14:29:42;;;;;;;;;;;13.00;99.90;;;;;;5101987;28;20010;-34